X  Close Metar Aviation Weather Data     LEAL Alicante-Elche Miguel Hernández Airport
Temperature
11°C Temperature
8°C Dewpoint
82% Humidity



Wind
2 KM/H
1 MPH
0 M/S
1 KTS



340°
NNW
Current Conditions

Clear Clear
Pressure 1012.87 (hPa) - 29.91 (inHg)
Visibility 6 (mile) - 9.7 (km)
Airport
Airport-code LEAL

Location: Alicante-Elche Miguel Hernández Airport
Distance: 30 (km)

Metar:
LEAL 220300Z 34001KT CAVOK 11/08 Q1013 NOSIG

Time: 22-04-2024 05:00 CEST